Time;durP1;ratioP1;P1;durP2;ratioP2;P2;SDS_P1;SDS_P2;PMS_P1;PMS_P2;Temp;Humidity;BMP_temperature;BMP_pressure;BME280_temperature;BME280_humidity;BME280_pressure;Samples;Min_cycle;Max_cycle;Signal;HPM_P1;HPM_P2
2021/03/11 00:00:37;;;;;;;23.50;14.67;;;;;;;;;;5071466;28;20652;-74
2021/03/11 00:03:49;;;;;;;25.43;15.07;;;;;;;;;;5064044;28;21185;-74
2021/03/11 00:06:53;;;;;;;24.57;14.20;;;;;;;;;;5054791;28;20640;-74
2021/03/11 00:09:57;;;;;;;24.63;14.60;;;;;;;;;;5054292;28;20654;-74
2021/03/11 00:13:02;;;;;;;24.70;13.70;;;;;;;;;;5056336;28;20712;-74
2021/03/11 00:16:07;;;;;;;26.50;14.13;;;;;;;;;;5070434;28;20598;-74
2021/03/11 00:19:11;;;;;;;24.67;14.00;;;;;;;;;;5054299;28;20558;-74
2021/03/11 00:22:15;;;;;;;23.07;14.17;;;;;;;;;;5054251;28;20550;-74
2021/03/11 00:25:21;;;;;;;22.40;13.37;;;;;;;;;;5045800;28;20593;-74
2021/03/11 00:28:26;;;;;;;23.03;13.70;;;;;;;;;;5073564;28;20545;-74
2021/03/11 00:31:30;;;;;;;23.07;12.47;;;;;;;;;;5073893;28;20615;-74
2021/03/11 00:34:34;;;;;;;17.50;12.30;;;;;;;;;;5057802;28;20633;-74
2021/03/11 00:37:39;;;;;;;23.30;13.27;;;;;;;;;;5053118;28;20621;-74
2021/03/11 00:40:44;;;;;;;22.07;12.70;;;;;;;;;;5053584;28;20624;-74
2021/03/11 00:43:48;;;;;;;20.27;12.03;;;;;;;;;;5062634;28;21165;-74
2021/03/11 00:46:53;;;;;;;19.93;12.13;;;;;;;;;;5073490;28;20593;-74
2021/03/11 00:49:58;;;;;;;18.07;11.03;;;;;;;;;;5072771;28;20644;-74
2021/03/11 00:53:02;;;;;;;17.67;11.00;;;;;;;;;;5070196;28;20641;-74
2021/03/11 00:56:06;;;;;;;19.63;11.20;;;;;;;;;;5053121;28;20542;-74
2021/03/11 00:59:12;;;;;;;20.83;11.63;;;;;;;;;;5053901;28;20547;-74
2021/03/11 01:02:17;;;;;;;18.80;11.00;;;;;;;;;;5066062;28;20628;-74
2021/03/11 01:05:24;;;;;;;19.97;12.03;;;;;;;;;;5032767;28;20544;-74
2021/03/11 01:08:29;;;;;;;17.83;11.20;;;;;;;;;;5022309;28;20606;-73
2021/03/11 01:11:33;;;;;;;17.47;10.67;;;;;;;;;;5053359;28;21218;-74
2021/03/11 01:14:39;;;;;;;17.33;9.97;;;;;;;;;;5069643;28;20601;-74
2021/03/11 01:17:43;;;;;;;17.23;10.27;;;;;;;;;;5053770;28;20587;-74
2021/03/11 01:20:47;;;;;;;15.37;9.73;;;;;;;;;;5054403;28;20621;-74
2021/03/11 01:23:51;;;;;;;18.30;10.17;;;;;;;;;;5071170;28;20589;-74
2021/03/11 01:26:56;;;;;;;16.40;10.43;;;;;;;;;;5073147;28;21157;-74
2021/03/11 01:30:02;;;;;;;18.63;10.37;;;;;;;;;;5072992;28;20667;-74
2021/03/11 01:33:06;;;;;;;16.47;10.30;;;;;;;;;;5057110;28;21191;-74
2021/03/11 01:36:11;;;;;;;15.53;9.97;;;;;;;;;;5064943;28;20597;-74
2021/03/11 01:39:15;;;;;;;17.63;10.20;;;;;;;;;;5060697;28;20582;-74
2021/03/11 01:42:19;;;;;;;16.90;9.87;;;;;;;;;;5052156;28;20546;-74
2021/03/11 01:45:23;;;;;;;15.20;9.23;;;;;;;;;;5033311;28;20535;-74
2021/03/11 01:48:28;;;;;;;15.60;9.77;;;;;;;;;;5032461;28;20556;-74
2021/03/11 01:51:33;;;;;;;14.67;8.90;;;;;;;;;;5050361;28;21005;-74
2021/03/11 01:54:37;;;;;;;16.53;9.83;;;;;;;;;;5069337;28;20614;-74
2021/03/11 01:57:41;;;;;;;14.97;9.47;;;;;;;;;;5056436;28;20586;-74
2021/03/11 02:00:46;;;;;;;13.40;9.00;;;;;;;;;;5036284;28;20615;-74
2021/03/11 02:03:50;;;;;;;11.53;8.37;;;;;;;;;;5055282;28;20585;-74
2021/03/11 02:06:54;;;;;;;12.57;8.17;;;;;;;;;;5061648;28;20595;-74
2021/03/11 02:09:58;;;;;;;12.57;8.07;;;;;;;;;;5056731;28;21160;-74
2021/03/11 02:13:15;;;;;;;12.10;8.00;;;;;;;;;;5056466;28;21141;-74
2021/03/11 02:16:25;;;;;;;12.57;8.50;;;;;;;;;;5055808;28;20922;-74
2021/03/11 02:19:57;;;;;;;13.73;8.07;;;;;;;;;;5056875;28;20883;-73
2021/03/11 02:23:24;;;;;;;12.97;7.87;;;;;;;;;;5056492;28;20583;-74
2021/03/11 02:26:54;;;;;;;15.63;7.50;;;;;;;;;;5075305;28;20589;-74
2021/03/11 02:30:00;;;;;;;13.53;7.80;;;;;;;;;;5075683;28;20593;-74
2021/03/11 02:33:08;;;;;;;10.93;7.50;;;;;;;;;;5075331;28;20597;-74
2021/03/11 02:36:13;;;;;;;12.13;7.30;;;;;;;;;;5036060;28;20935;-74
2021/03/11 02:39:20;;;;;;;11.57;7.10;;;;;;;;;;5047233;28;20613;-74
2021/03/11 02:42:26;;;;;;;10.43;6.87;;;;;;;;;;5075650;28;20534;-74
2021/03/11 02:45:32;;;;;;;14.07;7.80;;;;;;;;;;5075870;28;20542;-74
2021/03/11 02:48:37;;;;;;;10.20;7.20;;;;;;;;;;5052811;28;20579;-74
2021/03/11 02:51:55;;;;;;;11.80;7.73;;;;;;;;;;5055652;28;20662;-74
2021/03/11 02:55:01;;;;;;;11.13;7.50;;;;;;;;;;5056043;28;20563;-74
2021/03/11 02:58:08;;;;;;;10.33;6.80;;;;;;;;;;5054199;28;20589;-74
2021/03/11 03:01:18;;;;;;;10.33;6.47;;;;;;;;;;5073410;28;20641;-74
2021/03/11 03:04:23;;;;;;;10.87;6.77;;;;;;;;;;5075898;28;20589;-74
2021/03/11 03:07:29;;;;;;;9.63;6.63;;;;;;;;;;5074153;28;20599;-74
2021/03/11 03:10:35;;;;;;;9.53;6.50;;;;;;;;;;5075539;28;20653;-74
2021/03/11 03:13:43;;;;;;;10.10;6.17;;;;;;;;;;5075883;28;20550;-74
2021/03/11 03:16:49;;;;;;;10.47;6.63;;;;;;;;;;5059701;28;20926;-74
2021/03/11 03:19:53;;;;;;;9.57;6.30;;;;;;;;;;5043329;28;20555;-74
2021/03/11 03:22:59;;;;;;;7.97;5.90;;;;;;;;;;5054553;28;20594;-74
2021/03/11 03:26:05;;;;;;;9.30;6.00;;;;;;;;;;5048123;28;20914;-74
2021/03/11 03:29:09;;;;;;;10.30;6.03;;;;;;;;;;5035650;28;20540;-74
2021/03/11 03:32:14;;;;;;;8.17;5.83;;;;;;;;;;5035513;28;20588;-75
2021/03/11 03:35:20;;;;;;;9.63;6.23;;;;;;;;;;5035282;28;20552;-74
2021/03/11 03:38:24;;;;;;;9.43;5.60;;;;;;;;;;5067848;28;20601;-74
2021/03/11 03:41:31;;;;;;;8.00;5.67;;;;;;;;;;5075088;28;20617;-75
2021/03/11 03:44:37;;;;;;;9.30;5.67;;;;;;;;;;5073057;28;20589;-74
2021/03/11 03:47:43;;;;;;;7.73;5.17;;;;;;;;;;5052224;28;20934;-74
2021/03/11 03:50:48;;;;;;;7.20;5.63;;;;;;;;;;5054095;28;20989;-74
2021/03/11 03:53:57;;;;;;;9.83;5.30;;;;;;;;;;5046185;28;20581;-74
2021/03/11 03:57:06;;;;;;;7.97;5.20;;;;;;;;;;5075977;28;20594;-74
2021/03/11 04:00:12;;;;;;;7.80;5.40;;;;;;;;;;5055080;28;20626;-74
2021/03/11 04:03:17;;;;;;;8.60;5.70;;;;;;;;;;5054082;28;20602;-74
2021/03/11 04:06:21;;;;;;;8.20;5.30;;;;;;;;;;5069843;28;20601;-74
2021/03/11 04:09:26;;;;;;;6.73;4.63;;;;;;;;;;5061922;28;20599;-75
2021/03/11 04:12:32;;;;;;;8.13;4.97;;;;;;;;;;5060363;28;20966;-75
2021/03/11 04:15:37;;;;;;;7.83;4.90;;;;;;;;;;5062505;28;20589;-75
2021/03/11 04:18:42;;;;;;;8.00;5.33;;;;;;;;;;5073570;28;20554;-75
2021/03/11 04:21:47;;;;;;;9.13;5.20;;;;;;;;;;5072055;28;21215;-75
2021/03/11 04:24:51;;;;;;;8.90;5.27;;;;;;;;;;5071717;28;20630;-74
2021/03/11 04:27:56;;;;;;;8.77;5.57;;;;;;;;;;5053599;28;20591;-74
2021/03/11 04:31:00;;;;;;;14.13;6.00;;;;;;;;;;5053148;28;20650;-74
2021/03/11 04:34:05;;;;;;;10.40;5.87;;;;;;;;;;5034418;28;20548;-75
2021/03/11 04:37:09;;;;;;;8.00;5.30;;;;;;;;;;5033527;28;20532;-75
2021/03/11 04:40:15;;;;;;;7.23;5.00;;;;;;;;;;5034009;28;20619;-75
2021/03/11 04:43:20;;;;;;;7.27;4.87;;;;;;;;;;5049159;28;20594;-75
2021/03/11 04:46:25;;;;;;;10.07;5.50;;;;;;;;;;5059053;28;20587;-75
2021/03/11 04:49:31;;;;;;;7.97;5.03;;;;;;;;;;5053474;28;20555;-75
2021/03/11 04:52:36;;;;;;;10.73;5.60;;;;;;;;;;5053937;28;20595;-75
2021/03/11 04:55:43;;;;;;;7.93;5.10;;;;;;;;;;5063201;28;21147;-75
2021/03/11 04:58:48;;;;;;;8.50;4.90;;;;;;;;;;5060969;28;20586;-75
2021/03/11 05:01:56;;;;;;;8.80;5.53;;;;;;;;;;5033560;28;20611;-74
2021/03/11 05:05:07;;;;;;;8.17;4.83;;;;;;;;;;5048639;28;20594;-74
2021/03/11 05:08:12;;;;;;;7.67;4.70;;;;;;;;;;5073645;28;20542;-74
2021/03/11 05:11:16;;;;;;;8.03;4.87;;;;;;;;;;5073408;28;20649;-74
2021/03/11 05:14:20;;;;;;;8.23;5.30;;;;;;;;;;5036071;28;20548;-75
2021/03/11 05:17:24;;;;;;;6.70;5.17;;;;;;;;;;5073675;28;20550;-74
2021/03/11 05:20:28;;;;;;;8.53;5.10;;;;;;;;;;5053703;28;20629;-74
2021/03/11 05:23:32;;;;;;;10.83;5.67;;;;;;;;;;5055864;22;20702;-71
2021/03/11 05:26:36;;;;;;;9.67;5.20;;;;;;;;;;5050181;28;20610;-70
2021/03/11 05:29:41;;;;;;;8.00;5.13;;;;;;;;;;5053451;28;20539;-71
2021/03/11 05:32:45;;;;;;;9.60;5.60;;;;;;;;;;5032533;28;20647;-71
2021/03/11 05:35:49;;;;;;;8.23;5.43;;;;;;;;;;4996866;28;20631;-71
2021/03/11 05:38:53;;;;;;;8.93;5.13;;;;;;;;;;5013678;28;20545;-71
2021/03/11 05:41:59;;;;;;;7.20;5.13;;;;;;;;;;5028980;28;21235;-70
2021/03/11 05:45:05;;;;;;;8.63;4.90;;;;;;;;;;5022058;28;20583;-71
2021/03/11 05:48:16;;;;;;;10.50;5.30;;;;;;;;;;5033148;28;20551;-71
2021/03/11 05:51:20;;;;;;;6.70;4.60;;;;;;;;;;5009609;28;21204;-72
2021/03/11 05:54:26;;;;;;;6.83;4.73;;;;;;;;;;5011444;28;20597;-71
2021/03/11 05:57:31;;;;;;;12.23;4.90;;;;;;;;;;5013275;28;20548;-72
2021/03/11 06:00:35;;;;;;;6.73;4.63;;;;;;;;;;5011680;28;20216;-71
2021/03/11 06:03:39;;;;;;;6.33;4.63;;;;;;;;;;5003701;28;20573;-71
2021/03/11 06:06:45;;;;;;;35.47;21.50;;;;;;;;;;5033434;28;20616;-73
2021/03/11 06:10:03;;;;;;;7.77;5.33;;;;;;;;;;5008922;28;21177;-72
2021/03/11 06:13:09;;;;;;;8.27;4.33;;;;;;;;;;5030415;28;20201;-72
2021/03/11 06:16:19;;;;;;;6.43;4.70;;;;;;;;;;5022976;28;20193;-71
2021/03/11 06:19:24;;;;;;;7.40;4.90;;;;;;;;;;5013032;28;20194;-71
2021/03/11 06:22:28;;;;;;;8.07;4.30;;;;;;;;;;5013985;28;20557;-73
2021/03/11 06:25:34;;;;;;;7.67;4.90;;;;;;;;;;5014053;28;20182;-71
2021/03/11 06:28:44;;;;;;;8.07;4.90;;;;;;;;;;5014023;28;21177;-71
2021/03/11 06:31:48;;;;;;;8.57;4.73;;;;;;;;;;4992685;28;20222;-71
2021/03/11 06:34:52;;;;;;;6.50;4.43;;;;;;;;;;4990740;28;20204;-72
2021/03/11 06:37:56;;;;;;;7.43;4.57;;;;;;;;;;5030883;28;20184;-72
2021/03/11 06:41:01;;;;;;;7.17;4.73;;;;;;;;;;5036215;28;20220;-72
2021/03/11 06:44:05;;;;;;;6.03;3.97;;;;;;;;;;5018599;28;20189;-71
2021/03/11 06:47:14;;;;;;;6.73;4.27;;;;;;;;;;5017395;28;20189;-71
2021/03/11 06:50:22;;;;;;;7.40;4.23;;;;;;;;;;5017375;28;20569;-71
2021/03/11 06:53:26;;;;;;;8.47;4.33;;;;;;;;;;5012543;28;20177;-70
2021/03/11 06:56:31;;;;;;;8.03;4.30;;;;;;;;;;5026082;28;20201;-71
2021/03/11 06:59:35;;;;;;;4.80;3.70;;;;;;;;;;5016085;28;20197;-71
2021/03/11 07:02:48;;;;;;;6.93;4.63;;;;;;;;;;5030241;28;20213;-70
2021/03/11 07:05:52;;;;;;;7.47;4.47;;;;;;;;;;5017961;28;20205;-70
2021/03/11 07:08:57;;;;;;;7.10;4.80;;;;;;;;;;5004368;28;20181;-71
2021/03/11 07:12:02;;;;;;;8.33;5.00;;;;;;;;;;5015802;28;20213;-70
2021/03/11 07:15:11;;;;;;;6.63;4.87;;;;;;;;;;5035952;28;20181;-71
2021/03/11 07:18:24;;;;;;;7.67;4.80;;;;;;;;;;5031749;28;20190;-70
2021/03/11 07:21:45;;;;;;;9.00;7.17;;;;;;;;;;5035585;28;20209;-70
2021/03/11 07:24:49;;;;;;;18.90;13.67;;;;;;;;;;5034326;28;20540;-70
2021/03/11 07:27:54;;;;;;;18.77;14.97;;;;;;;;;;5019705;28;20193;-71
2021/03/11 07:31:02;;;;;;;11.40;9.33;;;;;;;;;;5003650;28;20224;-72
2021/03/11 07:34:08;;;;;;;11.13;7.83;;;;;;;;;;5015544;28;20510;-71
2021/03/11 07:37:16;;;;;;;9.77;7.30;;;;;;;;;;5016649;28;20197;-70
2021/03/11 07:40:20;;;;;;;9.07;6.00;;;;;;;;;;5020247;28;20208;-70
2021/03/11 07:43:27;;;;;;;9.43;5.90;;;;;;;;;;5035140;28;20181;-72
2021/03/11 07:46:34;;;;;;;8.73;6.10;;;;;;;;;;5033426;28;20192;-71
2021/03/11 07:49:39;;;;;;;12.20;6.00;;;;;;;;;;5034044;28;20193;-72
2021/03/11 07:52:42;;;;;;;10.87;6.20;;;;;;;;;;5031737;28;20209;-71
2021/03/11 07:55:47;;;;;;;9.50;6.50;;;;;;;;;;4995649;28;20190;-71
2021/03/11 07:58:52;;;;;;;9.37;6.60;;;;;;;;;;5003290;28;20525;-70
2021/03/11 08:02:01;;;;;;;8.10;5.73;;;;;;;;;;5015120;28;20217;-70
2021/03/11 08:05:06;;;;;;;21.30;13.47;;;;;;;;;;5005599;28;20188;-70
2021/03/11 08:08:17;;;;;;;47.93;25.70;;;;;;;;;;5033012;28;20204;-70
2021/03/11 08:11:32;;;;;;;25.93;15.30;;;;;;;;;;5030852;28;20289;-70
2021/03/11 08:14:37;;;;;;;16.00;9.27;;;;;;;;;;5034562;28;20697;-70
2021/03/11 08:17:43;;;;;;;19.60;11.90;;;;;;;;;;5034707;28;20176;-70
2021/03/11 08:20:47;;;;;;;10.40;6.53;;;;;;;;;;4998215;28;20224;-70
2021/03/11 08:23:52;;;;;;;6.40;4.77;;;;;;;;;;5029344;28;20663;-70
2021/03/11 08:26:57;;;;;;;6.87;5.37;;;;;;;;;;5019159;28;20205;-70
2021/03/11 08:30:02;;;;;;;8.27;5.67;;;;;;;;;;5022176;28;20196;-71
2021/03/11 08:33:14;;;;;;;9.10;5.47;;;;;;;;;;5034628;28;20564;-71
2021/03/11 08:36:25;;;;;;;8.80;5.30;;;;;;;;;;5034383;28;20185;-71
2021/03/11 08:39:32;;;;;;;6.87;4.93;;;;;;;;;;5024845;28;20194;-70
2021/03/11 08:42:49;;;;;;;7.20;4.90;;;;;;;;;;5030263;28;20197;-70
2021/03/11 08:45:54;;;;;;;6.50;4.80;;;;;;;;;;5009500;28;20198;-70
2021/03/11 08:49:00;;;;;;;5.63;4.30;;;;;;;;;;5014311;28;20177;-71
2021/03/11 08:52:05;;;;;;;8.63;4.60;;;;;;;;;;5001947;28;20228;-71
2021/03/11 08:55:32;;;;;;;6.67;4.17;;;;;;;;;;5026913;28;20196;-70
2021/03/11 08:58:50;;;;;;;7.57;4.33;;;;;;;;;;5017628;28;20193;-70
2021/03/11 09:01:54;;;;;;;6.33;4.30;;;;;;;;;;5004078;28;20217;-70
2021/03/11 09:04:58;;;;;;;6.57;4.50;;;;;;;;;;5033893;28;20180;-71
2021/03/11 09:08:10;;;;;;;6.53;4.00;;;;;;;;;;5033585;28;20181;-70
2021/03/11 09:11:25;;;;;;;5.03;3.63;;;;;;;;;;5014418;28;20217;-70
2021/03/11 09:14:29;;;;;;;5.10;4.07;;;;;;;;;;5013791;28;20174;-71
2021/03/11 09:17:34;;;;;;;18.17;12.60;;;;;;;;;;5001611;28;20200;-71
2021/03/11 09:20:38;;;;;;;7.57;5.73;;;;;;;;;;5028628;28;20216;-70
2021/03/11 09:23:42;;;;;;;7.40;4.03;;;;;;;;;;5009556;28;20212;-70
2021/03/11 09:26:47;;;;;;;5.20;3.83;;;;;;;;;;5019527;28;20208;-70
2021/03/11 09:29:52;;;;;;;5.17;3.57;;;;;;;;;;5014231;28;20185;-70
2021/03/11 09:33:06;;;;;;;4.17;3.60;;;;;;;;;;5032593;28;20212;-70
2021/03/11 09:36:15;;;;;;;7.53;4.13;;;;;;;;;;5031628;28;20189;-70
2021/03/11 09:39:19;;;;;;;5.50;3.63;;;;;;;;;;5033349;28;20185;-71
2021/03/11 09:42:23;;;;;;;6.33;3.67;;;;;;;;;;5020554;28;20185;-71
2021/03/11 09:45:41;;;;;;;4.83;3.27;;;;;;;;;;5027362;28;20188;-70
2021/03/11 09:48:47;;;;;;;6.40;3.70;;;;;;;;;;5026247;28;20189;-70
2021/03/11 09:52:03;;;;;;;4.80;3.43;;;;;;;;;;5019541;28;20221;-70
2021/03/11 09:55:07;;;;;;;4.70;3.53;;;;;;;;;;5012170;28;20544;-70
2021/03/11 09:58:19;;;;;;;5.60;3.20;;;;;;;;;;5027798;28;20181;-70
2021/03/11 10:01:33;;;;;;;4.57;3.57;;;;;;;;;;5018511;28;20692;-70
2021/03/11 10:04:38;;;;;;;4.83;3.40;;;;;;;;;;5002370;28;20194;-70
2021/03/11 10:07:43;;;;;;;5.50;3.10;;;;;;;;;;5012249;28;20546;-70
2021/03/11 10:11:30;;;;;;;5.60;3.33;;;;;;;;;;5020145;28;20216;-70
2021/03/11 10:14:34;;;;;;;5.57;3.33;;;;;;;;;;4962583;28;20558;-71
2021/03/11 10:17:39;;;;;;;4.87;3.60;;;;;;;;;;5024135;28;20632;-71
2021/03/11 10:20:43;;;;;;;4.97;3.20;;;;;;;;;;5025071;28;20225;-71
2021/03/11 10:23:50;;;;;;;3.73;2.90;;;;;;;;;;5021619;28;20205;-70
2021/03/11 10:26:54;;;;;;;4.50;3.10;;;;;;;;;;5004858;28;20185;-70
2021/03/11 10:30:23;;;;;;;4.77;2.90;;;;;;;;;;5018474;28;20173;-70
2021/03/11 10:33:27;;;;;;;6.50;4.93;;;;;;;;;;5016997;28;20213;-70
2021/03/11 10:36:31;;;;;;;7.73;3.80;;;;;;;;;;5032881;28;20194;-70
2021/03/11 10:39:51;;;;;;;4.80;4.30;;;;;;;;;;5007094;28;20201;-71
2021/03/11 10:42:55;;;;;;;7.60;4.57;;;;;;;;;;5005113;28;20186;-71
2021/03/11 10:45:59;;;;;;;7.33;6.60;;;;;;;;;;5016748;28;20522;-72
2021/03/11 10:49:04;;;;;;;4.87;3.60;;;;;;;;;;5016185;28;20540;-71
2021/03/11 10:52:09;;;;;;;6.10;3.60;;;;;;;;;;5017433;28;20205;-70
2021/03/11 10:55:24;;;;;;;3.73;2.90;;;;;;;;;;5036101;28;20177;-71
2021/03/11 10:58:29;;;;;;;5.17;2.80;;;;;;;;;;5024119;28;20189;-71
2021/03/11 11:01:35;;;;;;;4.73;2.43;;;;;;;;;;5035938;28;20599;-71
2021/03/11 11:04:41;;;;;;;2.87;2.17;;;;;;;;;;5023613;28;20177;-71
2021/03/11 11:07:45;;;;;;;5.37;2.70;;;;;;;;;;5034542;28;20189;-70
2021/03/11 11:10:49;;;;;;;3.07;1.93;;;;;;;;;;5027308;28;20565;-71
2021/03/11 11:13:54;;;;;;;5.07;2.47;;;;;;;;;;5003808;28;20213;-70
2021/03/11 11:16:58;;;;;;;4.30;2.10;;;;;;;;;;5016451;28;20177;-71
2021/03/11 11:20:05;;;;;;;4.17;2.70;;;;;;;;;;5016772;28;20185;-70
2021/03/11 11:23:09;;;;;;;4.23;2.47;;;;;;;;;;5038694;22;20235;-87
2021/03/11 11:26:13;;;;;;;4.33;2.40;;;;;;;;;;5051378;28;20298;-88
2021/03/11 11:29:17;;;;;;;3.53;2.37;;;;;;;;;;5062684;28;20203;-88
2021/03/11 11:32:26;;;;;;;2.73;2.00;;;;;;;;;;5032252;28;20199;-88
2021/03/11 11:35:30;;;;;;;2.93;1.97;;;;;;;;;;5016401;28;20533;-88
2021/03/11 11:38:34;;;;;;;5.27;2.30;;;;;;;;;;5009007;28;20192;-89
2021/03/11 11:41:39;;;;;;;3.37;2.07;;;;;;;;;;5043842;28;20180;-88
2021/03/11 11:44:44;;;;;;;4.10;2.27;;;;;;;;;;5042683;28;20561;-88
2021/03/11 11:47:48;;;;;;;4.87;2.47;;;;;;;;;;5020403;28;20674;-88
2021/03/11 11:50:53;;;;;;;4.50;2.23;;;;;;;;;;5020473;28;20204;-88
2021/03/11 11:53:58;;;;;;;3.70;2.20;;;;;;;;;;5023487;28;20232;-87
2021/03/11 11:57:03;;;;;;;4.03;2.27;;;;;;;;;;5012380;28;20651;-88
2021/03/11 12:00:14;;;;;;;2.40;1.97;;;;;;;;;;5014127;28;20540;-88
2021/03/11 12:03:18;;;;;;;2.33;1.57;;;;;;;;;;5016306;28;20208;-87
2021/03/11 12:06:22;;;;;;;2.83;1.67;;;;;;;;;;5004778;28;20188;-87
2021/03/11 12:09:26;;;;;;;2.90;1.70;;;;;;;;;;5031530;28;20547;-87
2021/03/11 12:12:31;;;;;;;3.20;1.90;;;;;;;;;;5032552;28;20181;-87
2021/03/11 12:15:36;;;;;;;3.93;2.10;;;;;;;;;;5032141;28;20180;-87
2021/03/11 12:18:40;;;;;;;2.90;1.70;;;;;;;;;;5042858;28;20184;-88
2021/03/11 12:21:45;;;;;;;5.20;1.90;;;;;;;;;;5012564;28;20200;-88
2021/03/11 12:24:49;;;;;;;3.07;1.80;;;;;;;;;;5000782;28;20213;-87
2021/03/11 12:27:53;;;;;;;4.40;1.97;;;;;;;;;;5011520;28;20177;-88
2021/03/11 12:30:57;;;;;;;2.83;1.60;;;;;;;;;;5017891;28;20175;-87
2021/03/11 12:34:02;;;;;;;2.17;1.70;;;;;;;;;;5019699;28;20219;-88
2021/03/11 12:37:06;;;;;;;3.17;1.93;;;;;;;;;;5019458;28;20201;-88
2021/03/11 12:40:11;;;;;;;5.53;1.40;;;;;;;;;;5031306;28;20632;-88
2021/03/11 12:43:15;;;;;;;2.97;1.50;;;;;;;;;;5019730;28;20215;-87
2021/03/11 12:46:20;;;;;;;7.67;1.70;;;;;;;;;;5031011;28;20180;-88
2021/03/11 12:49:24;;;;;;;2.90;1.63;;;;;;;;;;5011129;28;20189;-88
2021/03/11 12:52:28;;;;;;;2.77;1.47;;;;;;;;;;5011105;28;20180;-87
2021/03/11 12:55:32;;;;;;;7.10;1.63;;;;;;;;;;5022141;28;20173;-88
2021/03/11 12:58:36;;;;;;;2.00;1.50;;;;;;;;;;5010629;28;20192;-88
2021/03/11 13:01:40;;;;;;;1.90;1.30;;;;;;;;;;5010794;28;20197;-88
2021/03/11 13:04:44;;;;;;;3.83;1.90;;;;;;;;;;5034158;28;20212;-88
2021/03/11 13:07:48;;;;;;;3.30;1.70;;;;;;;;;;5022310;28;20181;-88
2021/03/11 13:10:54;;;;;;;3.73;1.80;;;;;;;;;;5010853;28;20181;-88
2021/03/11 13:13:58;;;;;;;4.93;1.80;;;;;;;;;;5010721;28;20216;-88
2021/03/11 13:17:03;;;;;;;7.20;3.20;;;;;;;;;;4999591;28;20197;-87
2021/03/11 13:20:08;;;;;;;4.07;2.20;;;;;;;;;;5033055;28;20180;-88
2021/03/11 13:23:12;;;;;;;2.60;1.83;;;;;;;;;;5010221;28;20224;-88
2021/03/11 13:26:16;;;;;;;4.20;1.60;;;;;;;;;;5021538;28;20181;-88
2021/03/11 13:29:20;;;;;;;3.67;2.40;;;;;;;;;;5010649;28;20632;-88
2021/03/11 13:32:25;;;;;;;5.77;2.00;;;;;;;;;;4999432;28;20532;-88
2021/03/11 13:35:29;;;;;;;5.17;2.03;;;;;;;;;;4998886;28;20225;-88
2021/03/11 13:38:34;;;;;;;3.93;1.50;;;;;;;;;;5010682;28;20184;-88
2021/03/11 13:41:37;;;;;;;1.90;1.67;;;;;;;;;;4999693;28;20188;-88
2021/03/11 13:44:42;;;;;;;2.70;1.37;;;;;;;;;;5010290;28;20209;-88
2021/03/11 13:47:46;;;;;;;6.40;1.70;;;;;;;;;;4998223;28;20181;-88
2021/03/11 13:50:50;;;;;;;2.27;1.80;;;;;;;;;;5010693;28;20177;-88
2021/03/11 13:53:55;;;;;;;3.67;1.40;;;;;;;;;;4998871;28;20228;-88
2021/03/11 13:56:59;;;;;;;3.77;1.60;;;;;;;;;;5010265;28;20184;-88
2021/03/11 14:00:08;;;;;;;4.10;1.90;;;;;;;;;;5021563;28;20184;-88
2021/03/11 14:03:16;;;;;;;4.60;2.03;;;;;;;;;;5010286;28;20216;-88
2021/03/11 14:06:21;;;;;;;3.43;2.70;;;;;;;;;;5009910;28;20651;-88
2021/03/11 14:09:25;;;;;;;4.43;2.10;;;;;;;;;;4998983;28;20181;-88
2021/03/11 14:12:29;;;;;;;4.77;2.00;;;;;;;;;;5010053;28;20181;-88
2021/03/11 14:15:33;;;;;;;1.87;1.43;;;;;;;;;;4998972;28;20675;-88
2021/03/11 14:18:37;;;;;;;4.83;3.80;;;;;;;;;;4998682;28;20181;-88
2021/03/11 14:21:42;;;;;;;7.53;4.43;;;;;;;;;;4999035;28;20181;-88
2021/03/11 14:24:46;;;;;;;8.07;4.50;;;;;;;;;;5022779;28;20224;-88
2021/03/11 14:27:51;;;;;;;4.10;3.20;;;;;;;;;;5029707;28;20176;-88
2021/03/11 14:30:55;;;;;;;4.57;3.50;;;;;;;;;;5029731;28;20180;-88
2021/03/11 14:33:59;;;;;;;7.53;4.73;;;;;;;;;;5019660;28;20225;-88
2021/03/11 14:37:05;;;;;;;4.37;3.37;;;;;;;;;;5013523;28;20189;-88
2021/03/11 14:40:10;;;;;;;4.37;3.57;;;;;;;;;;4998439;28;20201;-89
2021/03/11 14:43:14;;;;;;;9.27;5.50;;;;;;;;;;5009570;28;20216;-89
2021/03/11 14:46:18;;;;;;;5.37;3.57;;;;;;;;;;5009772;28;20177;-89
2021/03/11 14:49:23;;;;;;;5.83;3.90;;;;;;;;;;5010401;28;20530;-89
2021/03/11 14:52:27;;;;;;;5.57;3.63;;;;;;;;;;5028199;28;20200;-89
2021/03/11 14:55:31;;;;;;;5.50;3.27;;;;;;;;;;5010385;28;20224;-89
2021/03/11 14:58:35;;;;;;;8.67;3.70;;;;;;;;;;5021968;28;20189;-88
2021/03/11 15:01:39;;;;;;;4.13;2.70;;;;;;;;;;5014076;28;20185;-89
2021/03/11 15:04:44;;;;;;;8.57;3.27;;;;;;;;;;5019765;28;20207;-89
2021/03/11 15:07:49;;;;;;;4.17;2.40;;;;;;;;;;5032776;28;20196;-89
2021/03/11 15:10:55;;;;;;;11.43;5.83;;;;;;;;;;5044172;28;20188;-89
2021/03/11 15:14:00;;;;;;;6.40;3.87;;;;;;;;;;5007762;28;20223;-89
2021/03/11 15:17:05;;;;;;;3.00;1.90;;;;;;;;;;5002635;28;20747;-89
2021/03/11 15:20:10;;;;;;;3.30;2.27;;;;;;;;;;5036373;28;20184;-89
2021/03/11 15:23:14;;;;;;;2.73;1.73;;;;;;;;;;5012905;28;20216;-88
2021/03/11 15:26:18;;;;;;;2.90;1.40;;;;;;;;;;5001670;28;20177;-89
2021/03/11 15:29:23;;;;;;;2.50;1.40;;;;;;;;;;5042193;28;20196;-89
2021/03/11 15:32:27;;;;;;;4.63;1.10;;;;;;;;;;5012541;28;20177;-89
2021/03/11 15:35:32;;;;;;;3.00;1.10;;;;;;;;;;5023871;28;20216;-89
2021/03/11 15:38:36;;;;;;;3.70;1.40;;;;;;;;;;5036338;28;20192;-89
2021/03/11 15:41:41;;;;;;;1.60;1.50;;;;;;;;;;5013595;28;20184;-89
2021/03/11 15:44:45;;;;;;;4.03;1.30;;;;;;;;;;5021528;28;20568;-89
2021/03/11 15:47:49;;;;;;;1.50;1.20;;;;;;;;;;5012418;28;20177;-89
2021/03/11 15:50:55;;;;;;;3.60;1.90;;;;;;;;;;5023560;28;20192;-88
2021/03/11 15:53:59;;;;;;;4.17;2.40;;;;;;;;;;5021588;28;20216;-89
2021/03/11 15:57:04;;;;;;;9.80;4.80;;;;;;;;;;5020638;28;20180;-89
2021/03/11 16:00:09;;;;;;;9.53;3.67;;;;;;;;;;5041296;28;20195;-89
2021/03/11 16:03:19;;;;;;;10.30;4.13;;;;;;;;;;5012276;28;20229;-88
2021/03/11 16:06:23;;;;;;;15.53;6.10;;;;;;;;;;5012167;28;20184;-89
2021/03/11 16:09:27;;;;;;;13.37;5.77;;;;;;;;;;5023066;28;20205;-90
2021/03/11 16:12:31;;;;;;;6.03;2.50;;;;;;;;;;5011645;28;20624;-89
2021/03/11 16:15:37;;;;;;;7.93;4.27;;;;;;;;;;5004387;28;20209;-90
2021/03/11 16:18:42;;;;;;;38.57;16.30;;;;;;;;;;5011560;28;20181;-89
2021/03/11 16:21:47;;;;;;;2.43;1.00;;;;;;;;;;5016626;28;20195;-89
2021/03/11 16:24:51;;;;;;;35.67;16.90;;;;;;;;;;5018930;28;20227;-89
2021/03/11 16:27:57;;;;;;;7.13;3.80;;;;;;;;;;5011481;28;20192;-88
2021/03/11 16:31:01;;;;;;;19.47;8.97;;;;;;;;;;5029883;28;20192;-88
2021/03/11 16:34:05;;;;;;;25.97;11.23;;;;;;;;;;5011485;28;20227;-88
2021/03/11 16:37:09;;;;;;;7.40;3.83;;;;;;;;;;5000424;28;20187;-88
2021/03/11 16:40:15;;;;;;;13.30;6.90;;;;;;;;;;5022316;28;20181;-88
2021/03/11 16:43:19;;;;;;;2.70;1.13;;;;;;;;;;5022625;28;20212;-88
2021/03/11 16:46:23;;;;;;;2.70;2.50;;;;;;;;;;5022423;28;20181;-89
2021/03/11 16:49:27;;;;;;;1.20;1.10;;;;;;;;;;5042491;28;20196;-90
2021/03/11 16:52:34;;;;;;;1.40;1.30;;;;;;;;;;5041895;28;20682;-89
2021/03/11 16:55:40;;;;;;;2.70;1.70;;;;;;;;;;5019445;28;20208;-88
2021/03/11 16:58:44;;;;;;;4.33;3.00;;;;;;;;;;5030468;28;20627;-89
2021/03/11 17:01:48;;;;;;;4.77;3.10;;;;;;;;;;5030691;28;20184;-89
2021/03/11 17:04:53;;;;;;;2.37;1.50;;;;;;;;;;5019450;28;20212;-89
2021/03/11 17:07:57;;;;;;;5.53;1.60;;;;;;;;;;5030315;28;20634;-87
2021/03/11 17:11:01;;;;;;;2.03;1.30;;;;;;;;;;5030398;28;20172;-87
2021/03/11 17:14:06;;;;;;;2.20;1.37;;;;;;;;;;5019408;28;20575;-87
2021/03/11 17:17:10;;;;;;;2.13;1.40;;;;;;;;;;5030644;28;20180;-88
2021/03/11 17:20:15;;;;;;;2.23;1.23;;;;;;;;;;4999674;28;20185;-87
2021/03/11 17:23:19;;;;;;;1.93;1.00;;;;;;;;;;5009788;28;20220;-88
2021/03/11 17:26:23;;;;;;;2.07;1.30;;;;;;;;;;5019047;28;20204;-88
2021/03/11 17:29:27;;;;;;;1.80;1.37;;;;;;;;;;5029935;28;20188;-88
2021/03/11 17:32:31;;;;;;;3.40;1.60;;;;;;;;;;5030130;28;20192;-88
2021/03/11 17:35:35;;;;;;;2.50;1.70;;;;;;;;;;5029963;28;20215;-88
2021/03/11 17:38:39;;;;;;;5.80;2.77;;;;;;;;;;5029990;28;20184;-88
2021/03/11 17:41:44;;;;;;;2.17;1.80;;;;;;;;;;5030074;28;20180;-89
2021/03/11 17:44:48;;;;;;;2.60;1.60;;;;;;;;;;5021418;28;20216;-87
2021/03/11 17:47:52;;;;;;;2.30;2.07;;;;;;;;;;5010178;28;20181;-86
2021/03/11 17:50:56;;;;;;;3.90;1.88;;;;;;;;;;5008795;28;21228;-87
2021/03/11 17:54:00;;;;;;;2.67;1.50;;;;;;;;;;5009808;28;20220;-86
2021/03/11 17:57:05;;;;;;;1.77;1.20;;;;;;;;;;4999036;28;20177;-87
2021/03/11 18:00:11;;;;;;;4.17;1.43;;;;;;;;;;5009952;28;20177;-87
2021/03/11 18:03:18;;;;;;;2.70;1.70;;;;;;;;;;4998725;28;20695;-88
2021/03/11 18:06:22;;;;;;;4.47;3.33;;;;;;;;;;5021221;28;20177;-88
2021/03/11 18:09:27;;;;;;;6.50;3.00;;;;;;;;;;4999072;28;20181;-87
2021/03/11 18:12:31;;;;;;;3.30;3.00;;;;;;;;;;4998824;28;20185;-88
2021/03/11 18:15:35;;;;;;;5.90;4.33;;;;;;;;;;4998838;28;20204;-87
2021/03/11 18:18:39;;;;;;;2.07;1.57;;;;;;;;;;4998289;28;20200;-87
2021/03/11 18:21:44;;;;;;;8.53;6.30;;;;;;;;;;5018397;28;20204;-90
2021/03/11 18:24:48;;;;;;;3.53;2.83;;;;;;;;;;5029041;28;20219;-87
2021/03/11 18:27:53;;;;;;;3.33;2.47;;;;;;;;;;5020927;28;20177;-86